Notice: Undefined index: language in /storage/ssd5/655/8113655/public_html/vam/index.php on line 14
AeroJet Virtual Airline

www.000webhost.com
 FLIGHT DETAILS
Pilot: AEJ012 Alan Mercado Aircraft: FLIGHTFACTOR A320 ULTIMATE AIR BERLIN Distance: 417NM
Departure MMMY Arrival MMMX Duration 1.07
Validation Validated Type Regular Tail Number N354AJ
ZFW 46383 Block Fuel/Initial FOB 2,918/0 Flight Fuel 2,606
Passengers 151 Cargo 18050 Alternate MMAA
Departure Time 0300 Cruise Speed Flight Level
Flight Type IFR Aircraft Type B738 Weight Unit Kg
Date 2019-01-24 Pilot Comments Network IVAO
Crashed No Validator Comments Flight Rating 95

 ROUTE
ROUTE URSUR UJ81 SASUT
REMARKS
 FLIGHT FAILURES
Crashed OK Beacon off & Engine Running OK KIAS Above 250 below 10000 FT OK
Lights OFF below 10000 FT Fail Lights ON above 10000 FT Fail Stall OK
Overspeed OK Flight paused OK Refueling OK
Slew detected OK Taxi & Taxi lights off OK Take off & lights off OK
Landing & lights off OK Landed in not planned airport OK Taxi Speed OK
Wrong altimeter in Take off Fail Wrong altimeter in Landing Fail
 LANDING ANALYSIS
Landing wind 249º/13 kt Landing heading 328
Landing VS: -939.65 ft/min Landing IAS: 148.29 kt
Landing Force G 2.4 G Landing Bank 0
Landing Pitch 1.5 Landing Flaps 0
Navigation Lights ON Landing Lights ON
Beacon Lights ON Strobe Lights ON
 FLIGHT MAP
 ALTITUDE CHART
 FLIGHT FINANCIAL REPORT
Comida Pasajeros 12.00
Comida Pasajeros(12). Number of PAX: 151 1,812.00
Comida Pasajeros(12).Distance: 417 5,004.00
Comida Pasajeros(12). Flight duration: 1.07 12.84
Publicidad a Bordo 25.00
Publicidad a Bordo(25). Number of PAX: 151 3,775.00
Publicidad a Bordo(25).Distance: 417 10,425.00
Cargo:18050 .Price per Cargo Unit:24 433,200.00
Number of PAX:151 .Price per PAX:95 14,345.00
TOTAL 468,610.84
 MAIN EVENTS
DATE EVENTIASALTITUDE
2019-01-24 17:21:03 SIM ACARS version 1.4.101285
2019-01-24 17:21:03 BOARDING01285
2019-01-24 17:21:03 FLAPS EXTENSION 5 % 01285
2019-01-24 17:23:08 FLAPS EXTENSION 4 % 01285
2019-01-24 17:23:26 STARTING ENGINE 2 01285
2019-01-24 17:23:58 FLAPS EXTENSION 2 % 01285
2019-01-24 17:23:59 FLAPS EXTENSION 4 % 01285
2019-01-24 17:23:59 FLAPS EXTENSION 2 % 01285
2019-01-24 17:24:00 FLAPS EXTENSION 1 % 01285
2019-01-24 17:24:00 FLAPS EXTENSION 3 % 01285
2019-01-24 17:24:17 FLAPS EXTENSION 5 % 01285
2019-01-24 17:24:31 STARTING ENGINE 1 01285
2019-01-24 17:25:18 FLAPS EXTENSION 4 % 01285
2019-01-24 17:25:20 FLAPS EXTENSION 5 % 01285
2019-01-24 17:25:21 FLAPS EXTENSION 4 % 01285
2019-01-24 17:25:25 FLAPS EXTENSION 5 % 01285
2019-01-24 17:25:29 FLAPS EXTENSION 4 % 01285
2019-01-24 17:25:38 FLAPS EXTENSION 12 % 01285
2019-01-24 17:25:38 FLAPS EXTENSION 0 % 01285
2019-01-24 17:25:38 FLAPS EXTENSION 2 % 01285
2019-01-24 17:25:39 FLAPS EXTENSION 0 % 01285
2019-01-24 17:25:39 FLAPS EXTENSION 4 % 01285
2019-01-24 17:25:39 FLAPS EXTENSION 24 % 01285
2019-01-24 17:25:39 FLAPS EXTENSION 34 % 01285
2019-01-24 17:25:39 FLAPS EXTENSION 33 % 01285
2019-01-24 17:26:58 TAXI TO THE RWY 91285
2019-01-24 17:31:18 ROLLING FOR TAKE OFF431285
2019-01-24 17:31:39 TAKE OFF1631289
2019-01-24 17:31:39 LIGHTS OFF BELOW 10000 ft1641289
2019-01-24 17:31:40 LANDING1671288
2019-01-24 17:31:44 TAKE OFF1831337
2019-01-24 17:31:45 GEAR UP1871386
2019-01-24 17:32:13 FLAPS EXTENSION 28 % 1843354
2019-01-24 17:32:13 FLAPS EXTENSION 13 % 1853360
2019-01-24 17:32:13 FLAPS EXTENSION 1 % 1853366
2019-01-24 17:32:13 FLAPS EXTENSION 0 % 1853374
2019-01-24 17:32:14 FLAPS EXTENSION 4 % 1853404
2019-01-24 17:32:14 FLAPS EXTENSION 5 % 1853411
2019-01-24 17:32:14 FLAPS EXTENSION 1 % 1853422
2019-01-24 17:32:14 FLAPS EXTENSION 3 % 1853447
2019-01-24 17:32:14 FLAPS EXTENSION 2 % 1853454
2019-01-24 17:32:15 FLAPS EXTENSION 0 % 1853464
2019-01-24 17:32:15 FLAPS EXTENSION 1 % 1863477
2019-01-24 17:32:16 FLAPS EXTENSION 2 % 1863510
2019-01-24 17:32:16 FLAPS EXTENSION 4 % 1863516
2019-01-24 17:32:16 FLAPS EXTENSION 2 % 1863521
2019-01-24 17:32:16 FLAPS EXTENSION 3 % 1873547
2019-01-24 17:32:16 FLAPS EXTENSION 4 % 1873554
2019-01-24 17:32:17 FLAPS EXTENSION 1 % 1873564
2019-01-24 17:32:17 FLAPS EXTENSION 0 % 1873574
2019-01-24 17:32:17 FLAPS EXTENSION 2 % 1873579
2019-01-24 17:32:17 FLAPS EXTENSION 7 % 1883589
2019-01-24 17:32:17 FLAPS EXTENSION 3 % 1883595
2019-01-24 17:32:17 FLAPS EXTENSION 3 % 1883600
2019-01-24 17:32:18 FLAPS EXTENSION 11 % 1883604
2019-01-24 17:32:18 FLAPS EXTENSION 5 % 1883609
2019-01-24 17:32:18 FLAPS EXTENSION 2 % 1883615
2019-01-24 17:32:18 FLAPS EXTENSION 6 % 1893634
2019-01-24 17:32:18 FLAPS EXTENSION 4 % 1893640
2019-01-24 17:32:18 FLAPS EXTENSION 3 % 1893644
2019-01-24 17:32:20 FLAPS EXTENSION 4 % 1913698
2019-01-24 17:32:20 FLAPS EXTENSION 3 % 1913705
2019-01-24 17:32:21 FLAPS EXTENSION 14 % 1933755
2019-01-24 17:32:21 FLAPS EXTENSION 13 % 1933760
2019-01-24 17:32:21 FLAPS EXTENSION 20 % 1933764
2019-01-24 17:32:21 FLAPS EXTENSION 14 % 1933771
2019-01-24 17:32:21 FLAPS EXTENSION 7 % 1933775
2019-01-24 17:32:21 FLAPS EXTENSION 10 % 1943785
2019-01-24 17:32:22 FLAPS EXTENSION 9 % 1943791
2019-01-24 17:32:22 FLAPS EXTENSION 4 % 1943796
2019-01-24 17:32:22 FLAPS EXTENSION 10 % 1943811
2019-01-24 17:32:22 FLAPS EXTENSION 7 % 1943816
2019-01-24 17:32:22 FLAPS EXTENSION 4 % 1953821
2019-01-24 17:32:23 FLAPS EXTENSION 2 % 1953846
2019-01-24 17:32:23 FLAPS EXTENSION 1 % 1953854
2019-01-24 17:32:27 FLAPS EXTENSION 2 % 2004066
2019-01-24 17:32:28 FLAPS EXTENSION 1 % 2024133
2019-01-24 17:32:30 FLAPS EXTENSION 2 % 2034215
2019-01-24 17:32:32 FLAPS EXTENSION 4 % 2064354
2019-01-24 17:32:33 FLAPS EXTENSION 5 % 2064371
2019-01-24 17:32:33 FLAPS EXTENSION 6 % 2074388
2019-01-24 17:32:33 FLAPS EXTENSION 7 % 2074395
2019-01-24 17:32:33 FLAPS EXTENSION 12 % 2074406
2019-01-24 17:32:34 FLAPS EXTENSION 9 % 2074412
2019-01-24 17:32:34 FLAPS EXTENSION 10 % 2074422
2019-01-24 17:32:34 FLAPS EXTENSION 5 % 2074429
2019-01-24 17:32:34 FLAPS EXTENSION 4 % 2084434
2019-01-24 17:32:35 FLAPS EXTENSION 5 % 2084464
2019-01-24 17:32:35 FLAPS EXTENSION 8 % 2084469
2019-01-24 17:32:35 FLAPS EXTENSION 9 % 2084480
2019-01-24 17:32:35 FLAPS EXTENSION 7 % 2094485
2019-01-24 17:32:35 FLAPS EXTENSION 4 % 2094492
2019-01-24 17:32:37 FLAPS EXTENSION 5 % 2104564
2019-01-24 17:32:37 FLAPS EXTENSION 6 % 2104570
2019-01-24 17:32:37 FLAPS EXTENSION 4 % 2104580
2019-01-24 17:32:37 FLAPS EXTENSION 3 % 2114587
2019-01-24 17:32:38 FLAPS EXTENSION 4 % 2124638
2019-01-24 17:32:38 FLAPS EXTENSION 3 % 2124666
2019-01-24 17:32:42 FLAPS EXTENSION 2 % 2164846
2019-01-24 17:32:42 FLAPS EXTENSION 3 % 2164851
2019-01-24 17:32:44 FLAPS EXTENSION 4 % 2184947
2019-01-24 17:32:45 FLAPS EXTENSION 3 % 2194979
2019-01-24 17:32:47 FLAPS EXTENSION 2 % 2215074
2019-01-24 17:32:47 FLAPS EXTENSION 3 % 2215084
2019-01-24 17:32:51 FLAPS EXTENSION 2 % 2265288
2019-01-24 17:32:53 FLAPS EXTENSION 3 % 2285358
2019-01-24 17:32:55 FLAPS EXTENSION 4 % 2305448
2019-01-24 17:32:55 FLAPS EXTENSION 5 % 2315464
2019-01-24 17:32:55 FLAPS EXTENSION 6 % 2315473
2019-01-24 17:32:56 FLAPS EXTENSION 7 % 2325502
2019-01-24 17:32:57 FLAPS EXTENSION 9 % 2335536
2019-01-24 17:32:58 FLAPS EXTENSION 10 % 2335564
2019-01-24 17:32:58 FLAPS EXTENSION 9 % 2335571
2019-01-24 17:32:59 FLAPS EXTENSION 8 % 2355613
2019-01-24 17:32:59 FLAPS EXTENSION 7 % 2355618
2019-01-24 17:32:59 FLAPS EXTENSION 8 % 2355632
2019-01-24 17:32:59 FLAPS EXTENSION 5 % 2355638
2019-01-24 17:32:59 FLAPS EXTENSION 7 % 2365651
2019-01-24 17:33:00 FLAPS EXTENSION 5 % 2375690
2019-01-24 17:33:01 FLAPS EXTENSION 4 % 2375703
2019-01-24 17:33:01 FLAPS EXTENSION 3 % 2375723
2019-01-24 17:33:02 FLAPS EXTENSION 2 % 2395776
2019-01-24 17:34:19 FLAPS EXTENSION 3 % 25310116
2019-01-24 17:34:22 FLAPS EXTENSION 4 % 25310279
2019-01-24 17:34:23 FLAPS EXTENSION 3 % 25310351
2019-01-24 17:34:25 FLAPS EXTENSION 4 % 25310440
2019-01-24 17:34:26 FLAPS EXTENSION 3 % 25410509
2019-01-24 17:34:28 FLAPS EXTENSION 2 % 25510605
2019-01-24 17:34:30 FLAPS EXTENSION 3 % 25610684
2019-01-24 17:34:35 FLAPS EXTENSION 2 % 26010874
2019-01-24 17:34:37 FLAPS EXTENSION 3 % 26210943
2019-01-24 17:34:40 FLAPS EXTENSION 4 % 26411003
2019-01-24 17:34:40 FLAPS EXTENSION 5 % 26511014
2019-01-24 17:34:40 FLAPS EXTENSION 7 % 26511016
2019-01-24 17:34:40 FLAPS EXTENSION 8 % 26511022
2019-01-24 17:34:41 FLAPS EXTENSION 7 % 26511026
2019-01-24 17:34:41 FLAPS EXTENSION 5 % 26611036
2019-01-24 17:34:41 FLAPS EXTENSION 7 % 26611039
2019-01-24 17:34:41 FLAPS EXTENSION 5 % 26611042
2019-01-24 17:34:42 FLAPS EXTENSION 4 % 26611050
2019-01-24 17:34:43 FLAPS EXTENSION 5 % 26811075
2019-01-24 17:34:43 FLAPS EXTENSION 4 % 26811080
2019-01-24 17:34:43 FLAPS EXTENSION 5 % 26811083
2019-01-24 17:34:43 FLAPS EXTENSION 4 % 26811085
2019-01-24 17:34:43 FLAPS EXTENSION 7 % 26811089
2019-01-24 17:34:43 FLAPS EXTENSION 9 % 26911094
2019-01-24 17:34:44 FLAPS EXTENSION 7 % 26911099
2019-01-24 17:34:44 FLAPS EXTENSION 9 % 26911104
2019-01-24 17:34:44 FLAPS EXTENSION 8 % 26911107
2019-01-24 17:34:44 FLAPS EXTENSION 7 % 27011115
2019-01-24 17:34:45 FLAPS EXTENSION 5 % 27011131
2019-01-24 17:34:45 FLAPS EXTENSION 4 % 27111138
2019-01-24 17:34:45 FLAPS EXTENSION 5 % 27111144
2019-01-24 17:34:46 FLAPS EXTENSION 4 % 27211157
2019-01-24 17:34:46 FLAPS EXTENSION 2 % 27211167
2019-01-24 17:34:48 FLAPS EXTENSION 4 % 27511218
2019-01-24 17:34:49 FLAPS EXTENSION 5 % 27511223
2019-01-24 17:34:49 FLAPS EXTENSION 4 % 27511226
2019-01-24 17:34:49 FLAPS EXTENSION 5 % 27511231
2019-01-24 17:34:49 FLAPS EXTENSION 6 % 27611241
2019-01-24 17:34:50 FLAPS EXTENSION 7 % 27611244
2019-01-24 17:34:50 FLAPS EXTENSION 6 % 27711265
2019-01-24 17:34:51 FLAPS EXTENSION 7 % 27711273
2019-01-24 17:34:51 FLAPS EXTENSION 6 % 27811275
2019-01-24 17:34:51 FLAPS EXTENSION 5 % 27811281
2019-01-24 17:34:51 FLAPS EXTENSION 4 % 27811289
2019-01-24 17:34:52 FLAPS EXTENSION 3 % 27911315
2019-01-24 17:35:05 FLAPS EXTENSION 2 % 29011717
2019-01-24 17:36:11 FLAPS EXTENSION 0 % 29215188
2019-01-24 17:36:45 FLAPS EXTENSION 2 % 29116838
2019-01-24 17:38:55 FLAPS EXTENSION 3 % 29222010
2019-01-24 17:38:56 FLAPS EXTENSION 2 % 29222076
2019-01-24 17:39:15 FLAPS EXTENSION 3 % 29122722
2019-01-24 17:41:45 FLAPS EXTENSION 2 % 29127061
2019-01-24 17:47:59 CRUISE26435007
2019-01-24 18:16:19 DESCEND25234495
2019-01-24 18:24:42 LIGHTS ON ABOVE 10000 ft27413525
2019-01-24 18:26:19 CRUISE19812125
2019-01-24 18:26:41 FLAPS EXTENSION 8 % 19812123
2019-01-24 18:26:41 FLAPS EXTENSION 5 % 19812123
2019-01-24 18:26:41 FLAPS EXTENSION 3 % 19812123
2019-01-24 18:26:42 FLAPS EXTENSION 0 % 19812123
2019-01-24 18:26:42 FLAPS EXTENSION 1 % 19812123
2019-01-24 18:26:42 FLAPS EXTENSION 2 % 19812123
2019-01-24 18:26:42 FLAPS EXTENSION 0 % 19812124
2019-01-24 18:26:43 FLAPS EXTENSION 18 % 19912124
2019-01-24 18:26:43 FLAPS EXTENSION 29 % 19912124
2019-01-24 18:26:43 FLAPS EXTENSION 33 % 19912124
2019-01-24 18:30:29 DESCEND20311756
2019-01-24 18:31:14 FLAPS EXTENSION 31 % 21110860
2019-01-24 18:31:15 FLAPS EXTENSION 45 % 21110856
2019-01-24 18:31:15 FLAPS EXTENSION 62 % 21110852
2019-01-24 18:31:15 FLAPS EXTENSION 66 % 21110848
2019-01-24 18:32:39 CRUISE16210326
2019-01-24 18:33:59 DESCEND1559774
2019-01-24 18:34:51 FLAPS EXTENSION 80 % 1538853
2019-01-24 18:34:51 FLAPS EXTENSION 91 % 1538852
2019-01-24 18:35:19 CRUISE1488821
2019-01-24 18:35:37 GEAR DOWN1508815
2019-01-24 18:35:59 DESCEND1488597
2019-01-24 18:35:59 FLAPS EXTENSION 89 % 1488589
2019-01-24 18:36:01 FLAPS EXTENSION 100 % 1488566
2019-01-24 18:36:04 FLAPS EXTENSION 82 % 1498530
2019-01-24 18:36:10 FLAPS EXTENSION 100 % 1498441
2019-01-24 18:38:01 LANDING1487337
2019-01-24 18:40:23 TAXI TO THE GATE207337
2019-01-24 18:41:00 FLAPS EXTENSION 45 % 177337
2019-01-24 18:41:00 FLAPS EXTENSION 14 % 177337
2019-01-24 18:41:00 FLAPS EXTENSION 0 % 187337
2019-01-24 18:41:01 FLAPS EXTENSION 21 % 187337
2019-01-24 18:41:01 FLAPS EXTENSION 22 % 187337
2019-01-24 18:41:01 FLAPS EXTENSION 34 % 187337
2019-01-24 18:41:01 FLAPS EXTENSION 41 % 187337
2019-01-24 18:41:02 FLAPS EXTENSION 9 % 187337
2019-01-24 18:41:02 FLAPS EXTENSION 0 % 187337
2019-01-24 18:41:02 FLAPS EXTENSION 1 % 187337
2019-01-24 18:41:02 FLAPS EXTENSION 14 % 187337
2019-01-24 18:41:03 FLAPS EXTENSION 20 % 187337
2019-01-24 18:41:03 FLAPS EXTENSION 28 % 187337
2019-01-24 18:41:04 FLAPS EXTENSION 32 % 197337
2019-01-24 18:41:04 FLAPS EXTENSION 31 % 197337
2019-01-24 18:41:04 FLAPS EXTENSION 32 % 197337
2019-01-24 18:41:04 FLAPS EXTENSION 29 % 197337
2019-01-24 18:41:05 FLAPS EXTENSION 20 % 197337
2019-01-24 18:41:05 FLAPS EXTENSION 5 % 197337
2019-01-24 18:41:05 FLAPS EXTENSION 19 % 197337
2019-01-24 18:41:05 FLAPS EXTENSION 16 % 197337
2019-01-24 18:41:06 FLAPS EXTENSION 6 % 197337
2019-01-24 18:41:06 FLAPS EXTENSION 2 % 197337
2019-01-24 18:41:06 FLAPS EXTENSION 9 % 197337
2019-01-24 18:41:06 FLAPS EXTENSION 25 % 197337
2019-01-24 18:41:07 FLAPS EXTENSION 19 % 207337
2019-01-24 18:41:07 FLAPS EXTENSION 24 % 207337
2019-01-24 18:41:07 FLAPS EXTENSION 19 % 207337
2019-01-24 18:41:07 FLAPS EXTENSION 25 % 207337
2019-01-24 18:41:08 FLAPS EXTENSION 20 % 207337
2019-01-24 18:41:08 FLAPS EXTENSION 17 % 207337
2019-01-24 18:41:08 FLAPS EXTENSION 18 % 207337
2019-01-24 18:41:08 FLAPS EXTENSION 13 % 207337
2019-01-24 18:41:09 FLAPS EXTENSION 4 % 207337
2019-01-24 18:41:09 FLAPS EXTENSION 11 % 207337
2019-01-24 18:41:09 FLAPS EXTENSION 16 % 207337
2019-01-24 18:41:09 FLAPS EXTENSION 15 % 207337
2019-01-24 18:41:10 FLAPS EXTENSION 16 % 207337
2019-01-24 18:41:10 FLAPS EXTENSION 13 % 217337
2019-01-24 18:41:10 FLAPS EXTENSION 14 % 217337
2019-01-24 18:41:10 FLAPS EXTENSION 16 % 217337
2019-01-24 18:41:11 FLAPS EXTENSION 18 % 217337
2019-01-24 18:41:11 FLAPS EXTENSION 15 % 217337
2019-01-24 18:41:11 FLAPS EXTENSION 15 % 217337
2019-01-24 18:41:12 FLAPS EXTENSION 13 % 217337
2019-01-24 18:41:12 FLAPS EXTENSION 12 % 217337
2019-01-24 18:41:13 FLAPS EXTENSION 13 % 217337
2019-01-24 18:41:13 FLAPS EXTENSION 15 % 217337
2019-01-24 18:41:13 FLAPS EXTENSION 13 % 217337
2019-01-24 18:41:14 FLAPS EXTENSION 15 % 217337
2019-01-24 18:41:14 FLAPS EXTENSION 16 % 217337
2019-01-24 18:41:14 FLAPS EXTENSION 11 % 217337
2019-01-24 18:41:14 FLAPS EXTENSION 13 % 217337
2019-01-24 18:41:15 FLAPS EXTENSION 10 % 227337
2019-01-24 18:41:15 FLAPS EXTENSION 6 % 227337
2019-01-24 18:41:15 FLAPS EXTENSION 8 % 227337
2019-01-24 18:41:15 FLAPS EXTENSION 6 % 227337
2019-01-24 18:41:16 FLAPS EXTENSION 5 % 227337
2019-01-24 18:41:16 FLAPS EXTENSION 8 % 227337
2019-01-24 18:41:16 FLAPS EXTENSION 11 % 227337
2019-01-24 18:41:16 FLAPS EXTENSION 5 % 227337
2019-01-24 18:41:17 FLAPS EXTENSION 13 % 227337
2019-01-24 18:41:17 FLAPS EXTENSION 13 % 227337
2019-01-24 18:41:17 FLAPS EXTENSION 11 % 227337
2019-01-24 18:41:17 FLAPS EXTENSION 13 % 227337
2019-01-24 18:41:18 FLAPS EXTENSION 9 % 227337
2019-01-24 18:41:18 FLAPS EXTENSION 0 % 227337
2019-01-24 18:41:18 FLAPS EXTENSION 3 % 237337
2019-01-24 18:41:18 FLAPS EXTENSION 0 % 237337
2019-01-24 18:41:19 FLAPS EXTENSION 1 % 237337
2019-01-24 18:41:19 FLAPS EXTENSION 4 % 237337
2019-01-24 18:41:19 FLAPS EXTENSION 3 % 237337
2019-01-24 18:41:20 FLAPS EXTENSION 2 % 237337
2019-01-24 18:41:20 FLAPS EXTENSION 20 % 237337
2019-01-24 18:41:20 FLAPS EXTENSION 14 % 237337
2019-01-24 18:41:20 FLAPS EXTENSION 19 % 237337
2019-01-24 18:41:21 FLAPS EXTENSION 15 % 247337
2019-01-24 18:41:21 FLAPS EXTENSION 3 % 247337
2019-01-24 18:41:21 FLAPS EXTENSION 6 % 247337
2019-01-24 18:41:21 FLAPS EXTENSION 7 % 247337
2019-01-24 18:41:22 FLAPS EXTENSION 10 % 247337
2019-01-24 18:41:22 FLAPS EXTENSION 10 % 247337
2019-01-24 18:41:22 FLAPS EXTENSION 13 % 247337
2019-01-24 18:41:22 FLAPS EXTENSION 15 % 247337
2019-01-24 18:41:23 FLAPS EXTENSION 11 % 247337
2019-01-24 18:41:23 FLAPS EXTENSION 15 % 247337
2019-01-24 18:41:23 FLAPS EXTENSION 13 % 247337
2019-01-24 18:41:23 FLAPS EXTENSION 5 % 247337
2019-01-24 18:41:24 FLAPS EXTENSION 3 % 247337
2019-01-24 18:41:24 FLAPS EXTENSION 0 % 247337
2019-01-24 18:41:24 FLAPS EXTENSION 2 % 247337
2019-01-24 18:41:24 FLAPS EXTENSION 1 % 257337
2019-01-24 18:41:25 FLAPS EXTENSION 5 % 257337
2019-01-24 18:41:25 FLAPS EXTENSION 1 % 257337
2019-01-24 18:41:26 FLAPS EXTENSION 0 % 257337
2019-01-24 18:41:29 FLAPS EXTENSION 1 % 267337
2019-01-24 18:41:29 FLAPS EXTENSION 0 % 267337
2019-01-24 18:41:29 FLAPS EXTENSION 1 % 267337
2019-01-24 18:41:30 FLAPS EXTENSION 0 % 267337
2019-01-24 18:41:30 FLAPS EXTENSION 2 % 267337
2019-01-24 18:41:31 FLAPS EXTENSION 0 % 277337
2019-01-24 18:41:31 FLAPS EXTENSION 2 % 277337
2019-01-24 18:41:32 FLAPS EXTENSION 0 % 277337
2019-01-24 18:41:32 FLAPS EXTENSION 2 % 277337
2019-01-24 18:41:34 FLAPS EXTENSION 3 % 277337
2019-01-24 18:41:34 FLAPS EXTENSION 2 % 277337
2019-01-24 18:41:34 FLAPS EXTENSION 0 % 277337
2019-01-24 18:41:35 FLAPS EXTENSION 2 % 277337
2019-01-24 18:41:35 FLAPS EXTENSION 0 % 277337
2019-01-24 18:41:43 FLAPS EXTENSION 1 % 177337
2019-01-24 18:41:44 FLAPS EXTENSION 2 % 167337
2019-01-24 18:41:46 FLAPS EXTENSION 0 % 157337
2019-01-24 18:41:49 FLAPS EXTENSION 2 % 137337
2019-01-24 18:41:49 FLAPS EXTENSION 0 % 137337
2019-01-24 18:41:55 FLAPS EXTENSION 2 % 147337
2019-01-24 18:41:55 FLAPS EXTENSION 1 % 147337
2019-01-24 18:41:56 FLAPS EXTENSION 0 % 157337
2019-01-24 18:42:58 FLAPS EXTENSION 1 % 77337
2019-01-24 18:43:19 FLAPS EXTENSION 0 % 27337
2019-01-24 18:43:50 STOPPING ENGINE 2 27337
2019-01-24 18:43:52 STOPPING ENGINE 1 27337
 ACARS DATA
DATE IASGSALTITUDEFUEL CONSUMED OATFLIGHT STATUS
2019-01-24 17:22:03001284513BOARDING
2019-01-24 17:23:03001284513BOARDING
2019-01-24 17:24:030012841613BOARDING
2019-01-24 17:25:030012843013BOARDING
2019-01-24 17:26:030012844313BOARDING
2019-01-24 17:27:03101212846113TAXI TO THE RWY
2019-01-24 17:28:030012847513TAXI TO THE RWY
2019-01-24 17:29:030012848813TAXI TO THE RWY
2019-01-24 17:30:0335128410213TAXI TO THE RWY
2019-01-24 17:31:0373128413013TAXI TO THE RWY
2019-01-24 17:32:0318518727182529CLIMBING
2019-01-24 17:33:0323925658093693CLIMBING
2019-01-24 17:34:032522859210477-3CLIMBING
2019-01-24 17:35:0328831511651579-8CLIMBING
2019-01-24 17:36:0329132714799673-14CLIMBING
2019-01-24 17:37:0329134017644759-18CLIMBING
2019-01-24 17:38:0329136320098840-22CLIMBING
2019-01-24 17:39:0329137722312916-28CLIMBING
2019-01-24 17:40:0329139024281987-33CLIMBING
2019-01-24 17:41:03291439259581054-36CLIMBING
2019-01-24 17:42:03291451274931119-39CLIMBING
2019-01-24 17:43:03291460289411182-42CLIMBING
2019-01-24 17:44:03290465303711241-45CLIMBING
2019-01-24 17:45:03285469316961297-47CLIMBING
2019-01-24 17:46:03276466331411352-50CLIMBING
2019-01-24 17:47:03268465344411402-53CLIMBING
2019-01-24 17:48:03264462350081443-54CRUISE
2019-01-24 17:49:03265464350131479-54CRUISE
2019-01-24 17:50:03264463350131514-54CRUISE
2019-01-24 17:51:03264464350131549-54CRUISE
2019-01-24 17:52:03265464350141584-54CRUISE
2019-01-24 17:53:03264463350211619-53CRUISE
2019-01-24 17:54:03264463350741654-54CRUISE
2019-01-24 17:55:03266463350771689-54CRUISE
2019-01-24 17:56:03266454351551722-54CRUISE
2019-01-24 17:57:03264450350891753-54CRUISE
2019-01-24 17:58:03263448350551787-54CRUISE
2019-01-24 17:59:03263449350671822-54CRUISE
2019-01-24 18:00:03264450350931857-54CRUISE
2019-01-24 18:01:03264451351101892-54CRUISE
2019-01-24 18:02:03264451351201927-54CRUISE
2019-01-24 18:03:03264451351191961-54CRUISE
2019-01-24 18:04:03264451351131995-54CRUISE
2019-01-24 18:05:03264451351082029-54CRUISE
2019-01-24 18:06:03264451351062063-54CRUISE
2019-01-24 18:07:03264451351062098-54CRUISE
2019-01-24 18:08:03264451351062132-54CRUISE
2019-01-24 18:09:03264451351062167-54CRUISE
2019-01-24 18:10:03264451351082201-54CRUISE
2019-01-24 18:11:03264451351082234-54CRUISE
2019-01-24 18:12:03264451351062268-54CRUISE
2019-01-24 18:13:03264451351052302-54CRUISE
2019-01-24 18:14:03264451351052336-54CRUISE
2019-01-24 18:15:03265446351962370-54CRUISE
2019-01-24 18:16:03250419350432390-54CRUISE
2019-01-24 18:17:03259418327472397-49DESCEND
2019-01-24 18:18:03268416304172404-45DESCEND
2019-01-24 18:19:03277411280092412-40DESCEND
2019-01-24 18:20:03284405255982421-35DESCEND
2019-01-24 18:21:03289397231942431-30DESCEND
2019-01-24 18:22:03301396204542441-25DESCEND
2019-01-24 18:23:03309397175372453-18DESCEND
2019-01-24 18:24:03310381146762466-10DESCEND
2019-01-24 18:25:03256309130712479-5DESCEND
2019-01-24 18:26:03212253121412491-3DESCEND
2019-01-24 18:27:03202242121212523-3CRUISE
2019-01-24 18:28:03200240121202553-3CRUISE
2019-01-24 18:29:03200240121212584-3CRUISE
2019-01-24 18:30:03200246121212614-3CRUISE
2019-01-24 18:31:03208251110742628-1DESCEND
2019-01-24 18:32:031631951044726400DESCEND
2019-01-24 18:33:031601811032526790CRUISE
2019-01-24 18:34:03156168967327021DESCEND
2019-01-24 18:35:03149157885827183DESCEND
2019-01-24 18:36:03148155853927584DESCEND
2019-01-24 18:37:03148153791027865DESCEND
2019-01-24 18:38:03143143733728166LANDED
2019-01-24 18:39:033525733628366LANDED
2019-01-24 18:40:032515733628566LANDED
2019-01-24 18:41:03188733628686TAXI TO THE GATE
2019-01-24 18:42:031912733628906TAXI TO THE GATE
2019-01-24 18:43:0330733629056TAXI TO THE GATE
2019-01-24 18:44:0320733629136TAXI TO THE GATE
2019-01-24 18:45:0320733629176TAXI TO THE GATE


AeroJet Virtual Airlines